createdAt,value
2019-03-18T00:00:14.924Z,11.91
2019-03-18T00:02:43.747Z,11.83
2019-03-18T00:05:12.457Z,11.73
2019-03-18T00:07:41.201Z,11.77
2019-03-18T00:10:10.614Z,11.78
2019-03-18T00:12:39.314Z,11.73
2019-03-18T00:15:09.541Z,11.76
2019-03-18T00:17:38.245Z,11.86
2019-03-18T00:20:08.791Z,11.86
2019-03-18T00:22:37.504Z,11.82
2019-03-18T00:25:08.409Z,11.82
2019-03-18T00:27:37.202Z,11.78
2019-03-18T00:30:08.818Z,11.79
2019-03-18T00:32:37.697Z,11.86
2019-03-18T00:35:06.402Z,11.80
2019-03-18T00:37:35.111Z,11.70
2019-03-18T00:40:05.264Z,11.47
2019-03-18T00:42:33.939Z,11.60
2019-03-18T00:45:14.267Z,11.50
2019-03-18T00:47:33.114Z,11.44
2019-03-18T00:50:01.827Z,11.32
2019-03-18T00:52:30.531Z,11.26
2019-03-18T00:54:59.241Z,11.10
2019-03-18T00:57:27.986Z,11.06
2019-03-18T00:59:56.692Z,11.01
2019-03-18T01:02:25.411Z,10.95
2019-03-18T01:04:54.139Z,10.92
2019-03-18T01:07:22.857Z,10.73
2019-03-18T01:09:51.691Z,10.70
2019-03-18T01:12:20.397Z,10.63
2019-03-18T01:14:49.118Z,10.68
2019-03-18T01:17:17.842Z,10.75
2019-03-18T01:19:46.554Z,10.96
2019-03-18T01:22:15.308Z,10.76
2019-03-18T01:24:44.038Z,10.71
2019-03-18T01:27:12.761Z,10.85
2019-03-18T01:29:41.525Z,10.74
2019-03-18T01:32:10.234Z,10.80
2019-03-18T01:34:38.944Z,10.70
2019-03-18T01:37:07.659Z,10.53
2019-03-18T01:39:36.367Z,10.54
2019-03-18T01:42:05.146Z,10.57
2019-03-18T01:44:33.856Z,10.71
2019-03-18T01:47:02.567Z,10.71
2019-03-18T01:49:31.281Z,10.66
2019-03-18T01:51:59.985Z,10.69
2019-03-18T01:54:28.738Z,10.61
2019-03-18T01:56:57.446Z,10.63
2019-03-18T01:59:26.154Z,10.71
2019-03-18T02:01:54.872Z,10.64
2019-03-18T02:04:23.578Z,10.53
2019-03-18T02:06:52.329Z,10.60
2019-03-18T02:09:21.037Z,10.66
2019-03-18T02:11:49.745Z,10.68
2019-03-18T02:14:18.457Z,10.56
2019-03-18T02:16:47.164Z,10.49
2019-03-18T02:19:15.910Z,10.31
2019-03-18T02:21:44.616Z,10.13
2019-03-18T02:24:13.375Z,10.06
2019-03-18T02:26:42.122Z,10.08
2019-03-18T02:29:10.833Z,10.13
2019-03-18T02:31:39.582Z,10.15
2019-03-18T02:34:08.292Z,10.13
2019-03-18T02:36:36.992Z,10.09
2019-03-18T02:39:06.724Z,10.02
2019-03-18T02:41:35.436Z,10.14
2019-03-18T02:44:04.290Z,10.02
2019-03-18T02:46:33.003Z,10.03
2019-03-18T02:49:01.698Z,9.95
2019-03-18T02:51:30.606Z,9.92
2019-03-18T02:53:59.310Z,9.64
2019-03-18T02:56:28.076Z,9.54
2019-03-18T02:58:56.752Z,9.54
2019-03-18T03:01:25.447Z,9.67
2019-03-18T03:03:54.163Z,9.73
2019-03-18T03:06:22.909Z,9.68
2019-03-18T03:08:51.690Z,9.55
2019-03-18T03:11:20.398Z,9.75
2019-03-18T03:13:49.104Z,9.74
2019-03-18T03:16:26.220Z,9.68
2019-03-18T03:18:48.245Z,9.56
2019-03-18T03:21:16.988Z,9.60
2019-03-18T03:23:45.703Z,9.66
2019-03-18T03:26:14.509Z,9.66
2019-03-18T03:28:43.194Z,9.61
2019-03-18T03:31:11.894Z,9.69
2019-03-18T03:33:40.635Z,9.74
2019-03-18T03:36:09.336Z,9.73
2019-03-18T03:38:38.045Z,9.71
2019-03-18T03:41:06.873Z,9.72
2019-03-18T03:43:35.605Z,9.70
2019-03-18T03:46:04.459Z,9.65
2019-03-18T03:48:33.197Z,9.56
2019-03-18T03:51:01.903Z,9.50
2019-03-18T03:53:31.188Z,9.50
2019-03-18T03:56:00.203Z,9.43
2019-03-18T03:58:28.947Z,9.18
2019-03-18T04:00:57.654Z,9.11
2019-03-18T04:03:37.587Z,9.16
2019-03-18T04:05:56.786Z,9.11
2019-03-18T04:08:25.499Z,9.21
2019-03-18T04:10:54.327Z,9.25
2019-03-18T04:13:23.022Z,9.31
2019-03-18T04:15:51.773Z,9.33
2019-03-18T04:18:20.438Z,9.35
2019-03-18T04:20:49.149Z,9.38
2019-03-18T04:23:17.880Z,9.38
2019-03-18T04:25:46.581Z,9.28
2019-03-18T04:28:15.283Z,9.28
2019-03-18T04:30:44.032Z,9.31
2019-03-18T04:33:12.742Z,9.36
2019-03-18T04:35:41.543Z,9.27
2019-03-18T04:38:10.245Z,9.25
2019-03-18T04:40:38.945Z,9.21
2019-03-18T04:43:07.669Z,9.19
2019-03-18T04:45:36.373Z,9.11
2019-03-18T04:48:05.127Z,9.07
2019-03-18T04:50:33.840Z,8.77
2019-03-18T04:53:02.546Z,8.76
2019-03-18T04:55:31.261Z,8.89
2019-03-18T04:57:59.987Z,8.89
2019-03-18T05:00:28.758Z,8.96
2019-03-18T05:02:57.476Z,9.05
2019-03-18T05:05:26.184Z,9.07
2019-03-18T05:07:54.934Z,9.18
2019-03-18T05:10:23.642Z,9.28
2019-03-18T05:12:52.365Z,9.34
2019-03-18T05:15:21.092Z,9.44
2019-03-18T05:17:49.827Z,9.58
2019-03-18T05:20:18.600Z,9.69
2019-03-18T05:22:47.330Z,9.79
2019-03-18T05:25:16.032Z,9.80
2019-03-18T05:27:44.747Z,9.76
2019-03-18T05:30:16.262Z,9.80
2019-03-18T05:32:45.106Z,9.90
2019-03-18T05:35:13.826Z,9.93
2019-03-18T05:37:42.611Z,10.08
2019-03-18T05:40:11.444Z,10.17
2019-03-18T05:42:40.165Z,10.23
2019-03-18T05:45:10.523Z,10.32
2019-03-18T05:47:39.993Z,10.44
2019-03-18T05:50:10.223Z,10.58
2019-03-18T05:52:38.951Z,10.71
2019-03-18T05:55:08.556Z,10.83
2019-03-18T05:57:37.307Z,10.89
2019-03-18T06:00:10.622Z,10.79
2019-03-18T06:02:39.337Z,10.95
2019-03-18T06:05:08.167Z,11.18
2019-03-18T06:07:36.893Z,11.27
2019-03-18T06:10:08.469Z,11.27
2019-03-18T06:12:37.176Z,11.27
2019-03-18T06:15:08.590Z,11.25
2019-03-18T06:17:37.311Z,11.37
2019-03-18T06:20:08.820Z,11.49
2019-03-18T06:22:37.576Z,11.42
2019-03-18T06:25:07.796Z,11.61
2019-03-18T06:27:36.603Z,11.69
2019-03-18T06:30:08.715Z,11.61
2019-03-18T06:32:37.432Z,11.99
2019-03-18T06:35:07.843Z,11.88
2019-03-18T06:37:36.577Z,11.89
2019-03-18T06:40:15.953Z,11.94
2019-03-18T06:42:44.709Z,11.96
2019-03-18T06:45:13.621Z,11.90
2019-03-18T06:47:42.430Z,11.97
2019-03-18T06:50:14.342Z,11.81
2019-03-18T06:52:43.129Z,11.96
2019-03-18T06:55:11.994Z,11.92
2019-03-18T06:57:40.706Z,12.02
2019-03-18T07:00:12.086Z,12.04
2019-03-18T07:02:40.810Z,12.05
2019-03-18T07:05:09.833Z,12.05
2019-03-18T07:07:38.683Z,12.09
2019-03-18T07:10:10.548Z,12.16
2019-03-18T07:12:39.267Z,12.39
2019-03-18T07:15:08.395Z,12.52
2019-03-18T07:17:37.107Z,12.41
2019-03-18T07:20:14.095Z,12.37
2019-03-18T07:22:42.823Z,12.53
2019-03-18T07:25:11.637Z,12.71
2019-03-18T07:27:40.390Z,12.62
2019-03-18T07:30:11.308Z,12.87
2019-03-18T07:32:40.021Z,12.88
2019-03-18T07:35:08.844Z,12.78
2019-03-18T07:37:37.577Z,12.89
2019-03-18T07:40:11.782Z,12.97
2019-03-18T07:42:40.569Z,13.17
2019-03-18T07:45:10.890Z,13.47
2019-03-18T07:47:39.650Z,13.36
2019-03-18T07:50:11.106Z,13.54
2019-03-18T07:52:39.818Z,13.37
2019-03-18T07:55:09.179Z,13.54
2019-03-18T07:57:37.901Z,13.62
2019-03-18T08:00:09.761Z,13.78
2019-03-18T08:02:38.499Z,13.86
2019-03-18T08:05:09.227Z,13.95
2019-03-18T08:07:38.077Z,14.00
2019-03-18T08:10:09.736Z,14.18
2019-03-18T08:12:38.451Z,14.07
2019-03-18T08:15:09.703Z,14.01
2019-03-18T08:17:38.415Z,14.16
2019-03-18T08:20:10.006Z,14.35
2019-03-18T08:22:38.721Z,14.67
2019-03-18T08:25:08.726Z,14.69
2019-03-18T08:27:37.457Z,14.80
2019-03-18T08:30:11.791Z,14.81
2019-03-18T08:32:40.537Z,14.97
2019-03-18T08:35:09.350Z,15.06
2019-03-18T08:37:38.059Z,15.27
2019-03-18T08:40:09.076Z,15.38
2019-03-18T08:42:37.785Z,15.35
2019-03-18T08:45:11.913Z,15.58
2019-03-18T08:47:40.622Z,15.62
2019-03-18T08:50:12.349Z,15.68
2019-03-18T08:52:41.278Z,15.70
2019-03-18T08:55:10.982Z,15.95
2019-03-18T08:57:39.743Z,15.98
2019-03-18T09:00:11.600Z,16.12
2019-03-18T09:02:40.315Z,16.08
2019-03-18T09:05:09.977Z,16.10
2019-03-18T09:07:38.681Z,16.32
2019-03-18T09:10:10.303Z,16.48
2019-03-18T09:12:39.022Z,16.40
2019-03-18T09:15:10.490Z,16.61
2019-03-18T09:17:39.236Z,16.80
2019-03-18T09:20:10.991Z,16.63
2019-03-18T09:22:39.702Z,16.90
2019-03-18T09:25:10.219Z,16.92
2019-03-18T09:27:38.928Z,16.79
2019-03-18T09:30:13.671Z,16.89
2019-03-18T09:32:42.385Z,17.11
2019-03-18T09:35:11.190Z,17.18
2019-03-18T09:37:39.912Z,17.02
2019-03-18T09:40:11.525Z,17.12
2019-03-18T09:42:40.270Z,17.24
2019-03-18T09:45:11.727Z,17.41
2019-03-18T09:47:40.436Z,17.46
2019-03-18T09:50:10.554Z,17.52
2019-03-18T09:52:39.272Z,17.60
2019-03-18T09:55:08.932Z,17.71
2019-03-18T09:57:37.652Z,17.83
2019-03-18T10:00:15.096Z,17.91
2019-03-18T10:02:43.819Z,18.05
2019-03-18T10:05:12.638Z,18.02
2019-03-18T10:07:41.347Z,17.95
2019-03-18T10:10:12.113Z,17.98
2019-03-18T10:12:40.822Z,18.16
2019-03-18T10:15:15.092Z,18.20
2019-03-18T10:17:43.800Z,18.16
2019-03-18T10:20:12.608Z,18.25
2019-03-18T10:22:41.324Z,18.61
2019-03-18T10:25:10.140Z,18.53
2019-03-18T10:27:38.886Z,18.56
2019-03-18T10:30:13.215Z,18.60
2019-03-18T10:32:41.927Z,18.46
2019-03-18T10:35:10.750Z,18.55
2019-03-18T10:37:39.459Z,18.63
2019-03-18T10:40:10.706Z,18.56
2019-03-18T10:42:39.416Z,18.62
2019-03-18T10:45:10.441Z,18.82
2019-03-18T10:47:39.151Z,18.83
2019-03-18T10:50:13.212Z,18.88
2019-03-18T10:52:41.970Z,18.97
2019-03-18T10:55:11.504Z,19.02
2019-03-18T10:57:40.194Z,19.08
2019-03-18T11:00:16.451Z,19.18
2019-03-18T11:02:45.595Z,19.31
2019-03-18T11:05:15.096Z,19.39
2019-03-18T11:07:43.777Z,19.27
2019-03-18T11:10:16.924Z,19.42
2019-03-18T11:12:45.718Z,19.40
2019-03-18T11:15:15.832Z,19.58
2019-03-18T11:17:44.543Z,19.75
2019-03-18T11:20:14.773Z,19.71
2019-03-18T11:22:43.488Z,19.62
2019-03-18T11:25:15.894Z,19.67
2019-03-18T11:27:44.614Z,19.85
2019-03-18T11:30:14.735Z,19.82
2019-03-18T11:32:43.454Z,19.73
2019-03-18T11:35:12.262Z,19.77
2019-03-18T11:37:41.006Z,19.84
2019-03-18T11:40:19.817Z,20.07
2019-03-18T11:42:53.515Z,20.26
2019-03-18T11:45:22.268Z,20.08
2019-03-18T11:47:50.978Z,20.09
2019-03-18T11:50:20.611Z,20.02
2019-03-18T11:52:52.913Z,19.97
2019-03-18T11:55:23.986Z,20.11
2019-03-18T11:57:55.504Z,20.16
2019-03-18T12:00:25.208Z,20.18
2019-03-18T12:02:53.923Z,20.21
2019-03-18T12:05:23.566Z,20.23
2019-03-18T12:07:52.354Z,20.34
2019-03-18T12:10:21.575Z,20.38
2019-03-18T12:12:50.305Z,20.43
2019-03-18T12:15:23.107Z,20.57
2019-03-18T12:17:51.861Z,20.55
2019-03-18T12:20:24.663Z,20.71
2019-03-18T12:22:51.092Z,20.77
2019-03-18T12:25:19.837Z,20.72
2019-03-18T12:27:48.543Z,20.94
2019-03-18T12:30:19.612Z,20.82
2019-03-18T12:32:48.321Z,20.87
2019-03-18T12:35:17.023Z,20.82
2019-03-18T12:37:45.855Z,20.71
2019-03-18T12:40:18.335Z,20.94
2019-03-18T12:42:47.170Z,21.04
2019-03-18T12:45:17.918Z,21.06
2019-03-18T12:47:46.636Z,21.08
2019-03-18T12:50:36.881Z,21.19
2019-03-18T12:52:54.943Z,21.20
2019-03-18T12:55:23.673Z,21.28
2019-03-18T12:57:52.387Z,21.36
2019-03-18T13:00:23.059Z,21.41
2019-03-18T13:02:54.203Z,21.35
2019-03-18T13:05:22.962Z,21.43
2019-03-18T13:07:51.752Z,21.35
2019-03-18T13:10:21.937Z,21.54
2019-03-18T13:12:50.853Z,21.40
2019-03-18T13:15:20.575Z,21.33
2019-03-18T13:17:49.280Z,21.39
2019-03-18T13:20:24.235Z,21.49
2019-03-18T13:22:54.252Z,21.49
2019-03-18T13:25:23.236Z,21.50
2019-03-18T13:27:51.960Z,21.48
2019-03-18T13:30:23.120Z,21.51
2019-03-18T13:32:52.350Z,21.59
2019-03-18T13:35:21.070Z,21.68
2019-03-18T13:37:49.784Z,21.69
2019-03-18T13:40:21.506Z,21.67
2019-03-18T13:42:50.214Z,21.71
2019-03-18T13:45:22.853Z,21.72
2019-03-18T13:47:51.593Z,21.65
2019-03-18T13:50:21.210Z,21.76
2019-03-18T13:52:51.613Z,21.75
2019-03-18T13:55:20.425Z,21.80
2019-03-18T13:57:51.714Z,21.69
2019-03-18T14:00:21.345Z,21.71
2019-03-18T14:02:50.459Z,21.80
2019-03-18T14:05:19.195Z,21.83
2019-03-18T14:07:59.691Z,21.84
2019-03-18T14:10:22.085Z,21.89
2019-03-18T14:12:52.430Z,21.90
2019-03-18T14:15:22.240Z,21.81
2019-03-18T14:17:52.341Z,21.97
2019-03-18T14:20:26.815Z,22.02
2019-03-18T14:22:55.570Z,21.94
2019-03-18T14:25:24.283Z,21.88
2019-03-18T14:27:52.984Z,21.90
2019-03-18T14:30:22.606Z,21.97
2019-03-18T14:32:51.317Z,22.16
2019-03-18T14:35:21.668Z,22.14
2019-03-18T14:37:50.669Z,22.01
2019-03-18T14:40:23.418Z,22.13
2019-03-18T14:42:52.131Z,22.05
2019-03-18T14:45:24.277Z,22.19
2019-03-18T14:47:53.107Z,22.20
2019-03-18T14:50:21.823Z,22.20
2019-03-18T14:52:50.537Z,22.19
2019-03-18T14:55:19.553Z,22.10
2019-03-18T14:57:48.261Z,22.11
2019-03-18T15:00:22.496Z,22.17
2019-03-18T15:02:51.311Z,22.06
2019-03-18T15:05:20.127Z,22.09
2019-03-18T15:07:51.763Z,22.14
2019-03-18T15:10:32.627Z,22.01
2019-03-18T15:13:01.380Z,22.07
2019-03-18T15:15:30.089Z,22.05
2019-03-18T15:17:58.797Z,22.09
2019-03-18T15:20:28.410Z,22.03
2019-03-18T15:22:57.114Z,22.10
2019-03-18T15:25:27.354Z,22.07
2019-03-18T15:27:56.257Z,21.97
2019-03-18T15:30:24.967Z,22.14
2019-03-18T15:32:53.715Z,22.11
2019-03-18T15:35:22.434Z,22.22
2019-03-18T15:37:51.140Z,21.99
2019-03-18T15:40:22.039Z,21.92
2019-03-18T15:42:50.783Z,21.83
2019-03-18T15:45:21.296Z,21.98
2019-03-18T15:47:51.836Z,21.88
2019-03-18T15:50:21.676Z,21.95
2019-03-18T15:52:51.810Z,21.89
2019-03-18T15:55:23.608Z,21.89
2019-03-18T15:57:50.966Z,21.82
2019-03-18T16:00:27.042Z,21.73
2019-03-18T16:02:55.750Z,21.50
2019-03-18T16:05:24.462Z,21.31
2019-03-18T16:07:53.178Z,21.27
2019-03-18T16:10:21.893Z,21.23
2019-03-18T16:12:55.790Z,21.16
2019-03-18T16:15:24.502Z,21.07
2019-03-18T16:17:53.232Z,20.74
2019-03-18T16:20:23.919Z,20.63
2019-03-18T16:22:52.647Z,20.50
2019-03-18T16:25:21.408Z,20.37
2019-03-18T16:27:50.152Z,20.20
2019-03-18T16:30:21.017Z,19.90
2019-03-18T16:32:49.782Z,19.79
2019-03-18T16:35:18.599Z,19.59
2019-03-18T16:37:47.309Z,19.37
2019-03-18T16:40:17.636Z,19.26
2019-03-18T16:42:46.358Z,19.07
2019-03-18T16:45:18.601Z,18.81
2019-03-18T16:47:47.317Z,18.66
2019-03-18T16:50:21.340Z,18.46
2019-03-18T16:52:51.859Z,18.34
2019-03-18T16:55:20.580Z,18.25
2019-03-18T16:57:51.908Z,18.14
2019-03-18T17:00:21.727Z,18.06
2019-03-18T17:02:50.443Z,18.04
2019-03-18T17:05:19.172Z,18.00
2019-03-18T17:07:47.883Z,17.93
2019-03-18T17:10:16.945Z,17.84
2019-03-18T17:12:45.749Z,17.76
2019-03-18T17:15:15.371Z,17.85
2019-03-18T17:17:44.957Z,17.77
2019-03-18T17:20:14.663Z,17.70
2019-03-18T17:22:49.530Z,17.62
2019-03-18T17:25:17.863Z,17.55
2019-03-18T17:27:46.608Z,17.48
2019-03-18T17:30:19.524Z,17.44
2019-03-18T17:32:48.542Z,17.39
2019-03-18T17:35:17.298Z,17.35
2019-03-18T17:37:46.071Z,17.29
2019-03-18T17:40:18.890Z,17.26
2019-03-18T17:42:47.611Z,17.36
2019-03-18T17:45:17.335Z,17.36
2019-03-18T17:47:46.099Z,17.32
2019-03-18T17:50:25.658Z,17.38
2019-03-18T17:53:02.125Z,17.25
2019-03-18T17:55:24.942Z,17.29
2019-03-18T17:57:53.640Z,17.49
2019-03-18T18:00:39.303Z,17.59
2019-03-18T18:03:08.021Z,17.69
2019-03-18T18:05:36.743Z,17.64
2019-03-18T18:08:05.594Z,17.61
2019-03-18T18:10:34.313Z,17.49
2019-03-18T18:13:03.025Z,17.20
2019-03-18T18:15:31.784Z,17.03
2019-03-18T18:18:00.490Z,17.02
2019-03-18T18:20:29.200Z,16.96
2019-03-18T18:22:57.935Z,16.95
2019-03-18T18:25:26.657Z,16.79
2019-03-18T18:27:55.420Z,16.78
2019-03-18T18:30:24.144Z,16.80
2019-03-18T18:32:52.858Z,16.67
2019-03-18T18:35:21.626Z,16.62
2019-03-18T18:37:50.339Z,16.60
2019-03-18T18:40:26.774Z,16.53
2019-03-18T18:42:55.589Z,16.40
2019-03-18T18:45:24.294Z,16.25
2019-03-18T18:47:53.057Z,16.23
2019-03-18T18:50:21.782Z,16.12
2019-03-18T18:52:52.060Z,16.03
2019-03-18T18:55:20.790Z,15.82
2019-03-18T18:57:49.504Z,15.82
2019-03-18T19:00:22.152Z,15.68
2019-03-18T19:02:50.869Z,15.68
2019-03-18T19:05:19.781Z,15.65
2019-03-18T19:07:48.489Z,15.63
2019-03-18T19:10:21.469Z,15.58
2019-03-18T19:12:50.285Z,15.38
2019-03-18T19:15:24.648Z,15.08
2019-03-18T19:17:53.402Z,15.13
2019-03-18T19:20:22.118Z,14.90
2019-03-18T19:22:50.837Z,14.86
2019-03-18T19:25:19.657Z,14.93
2019-03-18T19:27:48.412Z,14.98
2019-03-18T19:30:21.086Z,14.91
2019-03-18T19:32:50.203Z,14.90
2019-03-18T19:35:19.221Z,14.62
2019-03-18T19:37:47.989Z,14.62
2019-03-18T19:40:21.651Z,14.61
2019-03-18T19:42:50.370Z,14.61
2019-03-18T19:45:19.234Z,14.62
2019-03-18T19:47:47.949Z,14.58
2019-03-18T19:50:24.569Z,14.54
2019-03-18T19:52:53.313Z,14.50
2019-03-18T19:55:22.024Z,14.52
2019-03-18T19:57:50.767Z,14.28
2019-03-18T20:00:24.931Z,14.10
2019-03-18T20:02:53.656Z,14.28
2019-03-18T20:05:22.393Z,14.21
2019-03-18T20:07:51.127Z,14.20
2019-03-18T20:10:20.898Z,14.24
2019-03-18T20:12:49.690Z,14.16
2019-03-18T20:15:19.102Z,14.10
2019-03-18T20:17:47.826Z,14.00
2019-03-18T20:20:18.480Z,13.98
2019-03-18T20:22:47.231Z,13.82
2019-03-18T20:25:15.950Z,13.71
2019-03-18T20:27:44.765Z,13.62
2019-03-18T20:30:15.952Z,13.31
2019-03-18T20:32:44.665Z,13.20
2019-03-18T20:35:21.641Z,13.40
2019-03-18T20:37:51.845Z,13.41
2019-03-18T20:40:20.902Z,13.37
2019-03-18T20:42:49.628Z,13.42
2019-03-18T20:45:23.416Z,13.29
2019-03-18T20:47:52.168Z,13.44
2019-03-18T20:50:27.081Z,13.34
2019-03-18T20:52:55.848Z,13.09
2019-03-18T20:55:24.570Z,13.17
2019-03-18T20:57:53.285Z,13.05
2019-03-18T21:00:25.400Z,13.00
2019-03-18T21:02:54.114Z,12.98
2019-03-18T21:05:24.952Z,12.95
2019-03-18T21:07:53.311Z,13.00
2019-03-18T21:10:22.218Z,12.94
2019-03-18T21:12:51.014Z,12.95
2019-03-18T21:15:19.763Z,12.93
2019-03-18T21:17:48.477Z,12.95
2019-03-18T21:20:19.422Z,12.90
2019-03-18T21:22:48.144Z,13.05
2019-03-18T21:25:16.853Z,13.06
2019-03-18T21:27:45.608Z,13.20
2019-03-18T21:30:20.222Z,13.25
2019-03-18T21:32:53.483Z,13.29
2019-03-18T21:35:22.163Z,13.14
2019-03-18T21:37:50.887Z,13.03
2019-03-18T21:40:21.350Z,13.11
2019-03-18T21:42:50.157Z,13.16
2019-03-18T21:45:23.597Z,13.06
2019-03-18T21:47:52.772Z,12.95
2019-03-18T21:50:21.588Z,12.99
2019-03-18T21:52:50.290Z,12.93
2019-03-18T21:55:19.035Z,13.10
2019-03-18T21:57:47.741Z,13.10
2019-03-18T22:00:18.375Z,13.02
2019-03-18T22:02:47.142Z,12.94
2019-03-18T22:05:15.949Z,12.86
2019-03-18T22:07:44.657Z,12.85
2019-03-18T22:10:21.109Z,12.52
2019-03-18T22:12:49.912Z,12.50
2019-03-18T22:15:18.694Z,12.50
2019-03-18T22:17:47.441Z,12.58
2019-03-18T22:20:19.886Z,12.62
2019-03-18T22:22:48.581Z,12.61
2019-03-18T22:25:17.633Z,12.42
2019-03-18T22:27:46.339Z,12.33
2019-03-18T22:30:20.950Z,12.28
2019-03-18T22:32:52.224Z,12.36
2019-03-18T22:35:20.946Z,12.53
2019-03-18T22:37:49.652Z,12.40
2019-03-18T22:40:18.761Z,12.25
2019-03-18T22:42:47.480Z,12.28
2019-03-18T22:45:17.088Z,12.24
2019-03-18T22:47:45.833Z,12.21
2019-03-18T22:50:16.378Z,12.19
2019-03-18T22:52:45.093Z,12.17
2019-03-18T22:55:15.148Z,12.08
2019-03-18T22:57:43.857Z,11.99
2019-03-18T23:00:31.191Z,11.99
2019-03-18T23:02:59.906Z,11.87
2019-03-18T23:05:28.613Z,11.77
2019-03-18T23:07:57.328Z,11.85
2019-03-18T23:10:26.043Z,11.79
2019-03-18T23:12:54.788Z,11.80
2019-03-18T23:15:23.501Z,11.78
2019-03-18T23:17:52.516Z,11.79
2019-03-18T23:20:21.264Z,11.72
2019-03-18T23:22:49.980Z,11.54
2019-03-18T23:25:18.692Z,11.52
2019-03-18T23:27:47.404Z,11.54
2019-03-18T23:30:16.430Z,11.51
2019-03-18T23:32:45.166Z,11.27
2019-03-18T23:35:13.890Z,11.24
2019-03-18T23:37:42.675Z,11.21
2019-03-18T23:40:12.794Z,11.24
2019-03-18T23:42:41.506Z,11.19
2019-03-18T23:45:11.159Z,11.21
2019-03-18T23:47:39.881Z,11.10
2019-03-18T23:50:13.497Z,11.13
2019-03-18T23:52:42.220Z,11.08
2019-03-18T23:55:18.903Z,11.04
2019-03-18T23:57:41.713Z,11.05
